createdAt,value
2017-09-23T00:00:47.819Z,14.00
2017-09-23T00:03:15.923Z,14.00
2017-09-23T00:05:44.050Z,14.00
2017-09-23T00:08:12.124Z,14.10
2017-09-23T00:10:40.231Z,14.10
2017-09-23T00:13:08.339Z,14.00
2017-09-23T00:15:36.427Z,14.00
2017-09-23T00:18:04.540Z,14.00
2017-09-23T00:20:33.707Z,14.00
2017-09-23T00:23:01.795Z,13.90
2017-09-23T00:25:29.928Z,13.90
2017-09-23T00:27:58.015Z,13.90
2017-09-23T00:30:26.121Z,13.80
2017-09-23T00:32:54.204Z,13.80
2017-09-23T00:35:22.287Z,13.80
2017-09-23T00:37:52.456Z,13.70
2017-09-23T00:40:20.544Z,13.60
2017-09-23T00:42:49.423Z,13.60
2017-09-23T00:45:17.547Z,13.70
2017-09-23T00:47:45.661Z,13.70
2017-09-23T00:50:13.767Z,13.70
2017-09-23T00:52:41.848Z,13.70
2017-09-23T00:55:09.963Z,13.70
2017-09-23T00:57:38.064Z,13.70
2017-09-23T01:00:06.167Z,13.60
2017-09-23T01:02:34.280Z,13.60
2017-09-23T01:05:02.391Z,13.60
2017-09-23T01:07:31.276Z,13.60
2017-09-23T01:10:00.135Z,13.60
2017-09-23T01:12:28.227Z,13.50
2017-09-23T01:14:56.388Z,13.60
2017-09-23T01:17:25.609Z,13.60
2017-09-23T01:19:53.690Z,13.60
2017-09-23T01:22:22.543Z,13.60
2017-09-23T01:24:51.977Z,13.70
2017-09-23T01:27:20.259Z,13.70
2017-09-23T01:29:48.374Z,13.70
2017-09-23T01:32:16.472Z,13.70
2017-09-23T01:34:44.572Z,13.80
2017-09-23T01:37:13.459Z,13.80
2017-09-23T01:39:41.543Z,13.70
2017-09-23T01:42:10.423Z,13.70
2017-09-23T01:44:39.394Z,13.70
2017-09-23T01:47:07.489Z,13.70
2017-09-23T01:49:36.352Z,13.70
2017-09-23T01:52:04.455Z,13.60
2017-09-23T01:54:33.346Z,13.60
2017-09-23T01:57:02.219Z,13.70
2017-09-23T01:59:30.313Z,13.70
2017-09-23T02:01:58.440Z,13.60
2017-09-23T02:04:26.547Z,12.80
2017-09-23T02:06:54.794Z,13.70
2017-09-23T02:09:22.892Z,13.60
2017-09-23T02:11:51.014Z,13.60
2017-09-23T02:14:19.113Z,13.70
2017-09-23T02:16:47.232Z,13.70
2017-09-23T02:19:16.100Z,13.60
2017-09-23T02:21:44.291Z,13.60
2017-09-23T02:24:13.150Z,13.60
2017-09-23T02:26:41.251Z,13.60
2017-09-23T02:29:09.416Z,13.60
2017-09-23T02:31:37.524Z,13.60
2017-09-23T02:34:05.645Z,13.60
2017-09-23T02:36:33.757Z,13.60
2017-09-23T02:39:01.847Z,13.60
2017-09-23T02:41:29.970Z,13.60
2017-09-23T02:43:58.135Z,13.50
2017-09-23T02:46:27.295Z,13.50
2017-09-23T02:48:55.412Z,13.50
2017-09-23T02:51:24.234Z,13.30
2017-09-23T02:53:52.346Z,13.40
2017-09-23T02:56:20.457Z,13.50
2017-09-23T02:58:48.606Z,13.50
2017-09-23T03:01:16.775Z,13.50
2017-09-23T03:03:44.884Z,13.50
2017-09-23T03:06:13.755Z,13.50
2017-09-23T03:08:41.876Z,13.50
2017-09-23T03:11:10.003Z,13.50
2017-09-23T03:13:38.118Z,13.50
2017-09-23T03:16:06.231Z,13.50
2017-09-23T03:18:35.103Z,13.60
2017-09-23T03:21:03.218Z,13.50
2017-09-23T03:23:31.555Z,13.40
2017-09-23T03:26:00.184Z,13.40
2017-09-23T03:28:28.307Z,13.40
2017-09-23T03:30:56.394Z,13.40
2017-09-23T03:33:24.503Z,13.50
2017-09-23T03:35:52.659Z,13.60
2017-09-23T03:38:20.744Z,13.60
2017-09-23T03:40:48.848Z,13.60
2017-09-23T03:43:16.942Z,13.60
2017-09-23T03:45:45.051Z,13.50
2017-09-23T03:48:13.187Z,13.50
2017-09-23T03:50:41.304Z,13.40
2017-09-23T03:53:09.417Z,13.50
2017-09-23T03:55:37.507Z,13.50
2017-09-23T03:58:05.641Z,13.40
2017-09-23T04:00:33.751Z,13.40
2017-09-23T04:03:01.874Z,13.40
2017-09-23T04:05:29.984Z,13.40
2017-09-23T04:07:58.096Z,13.40
2017-09-23T04:10:26.229Z,13.40
2017-09-23T04:12:54.369Z,13.40
2017-09-23T04:15:24.288Z,13.40
2017-09-23T04:17:53.331Z,13.30
2017-09-23T04:20:21.492Z,13.30
2017-09-23T04:22:49.590Z,13.40
2017-09-23T04:25:17.692Z,13.40
2017-09-23T04:27:46.868Z,13.40
2017-09-23T04:30:14.965Z,13.50
2017-09-23T04:32:43.084Z,13.50
2017-09-23T04:35:11.176Z,13.30
2017-09-23T04:37:39.296Z,13.40
2017-09-23T04:40:08.156Z,13.40
2017-09-23T04:42:36.269Z,13.40
2017-09-23T04:45:04.388Z,13.40
2017-09-23T04:47:32.509Z,13.40
2017-09-23T04:50:00.627Z,13.30
2017-09-23T04:52:28.707Z,13.30
2017-09-23T04:54:56.818Z,13.30
2017-09-23T04:57:25.719Z,13.30
2017-09-23T04:59:53.820Z,13.40
2017-09-23T05:02:21.936Z,13.30
2017-09-23T05:04:50.053Z,13.30
2017-09-23T05:07:18.173Z,13.20
2017-09-23T05:09:46.388Z,13.30
2017-09-23T05:12:14.492Z,13.30
2017-09-23T05:14:42.620Z,13.20
2017-09-23T05:17:11.481Z,13.20
2017-09-23T05:19:39.608Z,13.20
2017-09-23T05:22:07.714Z,13.10
2017-09-23T05:24:35.823Z,13.10
2017-09-23T05:27:04.715Z,13.20
2017-09-23T05:29:32.825Z,13.20
2017-09-23T05:32:01.003Z,13.20
2017-09-23T05:34:29.092Z,13.20
2017-09-23T05:36:57.209Z,13.10
2017-09-23T05:39:26.070Z,13.10
2017-09-23T05:41:54.163Z,13.10
2017-09-23T05:44:22.280Z,13.20
2017-09-23T05:46:50.404Z,13.10
2017-09-23T05:49:18.532Z,13.10
2017-09-23T05:51:46.658Z,13.10
2017-09-23T05:54:15.855Z,13.20
2017-09-23T05:56:44.966Z,13.20
2017-09-23T05:59:13.847Z,13.20
2017-09-23T06:01:42.719Z,13.20
2017-09-23T06:04:10.846Z,13.10
2017-09-23T06:06:38.974Z,13.10
2017-09-23T06:09:09.020Z,13.10
2017-09-23T06:11:37.298Z,13.20
2017-09-23T06:14:05.423Z,13.10
2017-09-23T06:16:33.563Z,13.00
2017-09-23T06:19:01.664Z,13.10
2017-09-23T06:21:29.801Z,13.00
2017-09-23T06:23:58.111Z,13.00
2017-09-23T06:26:26.767Z,13.00
2017-09-23T06:28:54.872Z,13.00
2017-09-23T06:31:23.331Z,13.00
2017-09-23T06:33:52.464Z,13.10
2017-09-23T06:36:21.588Z,13.10
2017-09-23T06:38:49.715Z,13.10
2017-09-23T06:41:18.475Z,13.10
2017-09-23T06:43:46.582Z,13.10
2017-09-23T06:46:15.603Z,13.00
2017-09-23T06:48:43.717Z,13.10
2017-09-23T06:51:11.807Z,13.00
2017-09-23T06:53:39.911Z,13.10
2017-09-23T06:56:08.185Z,13.20
2017-09-23T06:58:36.289Z,13.20
2017-09-23T07:01:04.404Z,13.10
2017-09-23T07:03:33.308Z,13.10
2017-09-23T07:06:02.534Z,13.10
2017-09-23T07:08:30.682Z,13.20
2017-09-23T07:10:58.784Z,13.20
2017-09-23T07:13:26.976Z,13.20
2017-09-23T07:15:55.290Z,13.30
2017-09-23T07:18:23.515Z,13.30
2017-09-23T07:20:52.769Z,13.30
2017-09-23T07:23:21.168Z,13.30
2017-09-23T07:25:49.614Z,13.30
2017-09-23T07:28:19.950Z,13.40
2017-09-23T07:30:48.220Z,13.50
2017-09-23T07:33:17.333Z,13.60
2017-09-23T07:35:46.651Z,13.60
2017-09-23T07:38:14.748Z,13.60
2017-09-23T07:40:42.855Z,13.70
2017-09-23T07:43:12.297Z,13.70
2017-09-23T07:45:40.637Z,13.80
2017-09-23T07:48:08.835Z,13.80
2017-09-23T07:50:36.953Z,13.90
2017-09-23T07:53:05.824Z,13.90
2017-09-23T07:55:34.133Z,13.90
2017-09-23T07:58:02.259Z,13.90
2017-09-23T08:00:31.462Z,14.00
2017-09-23T08:03:00.456Z,14.00
2017-09-23T08:05:28.777Z,14.00
2017-09-23T08:07:57.083Z,14.00
2017-09-23T08:10:25.388Z,13.90
2017-09-23T08:12:54.467Z,13.80
2017-09-23T08:15:23.844Z,13.80
2017-09-23T08:17:51.941Z,13.90
2017-09-23T08:20:20.073Z,13.80
2017-09-23T08:22:50.644Z,13.80
2017-09-23T08:25:19.699Z,13.90
2017-09-23T08:27:47.830Z,14.00
2017-09-23T08:30:17.395Z,14.00
2017-09-23T08:32:45.528Z,14.10
2017-09-23T08:35:13.650Z,14.10
2017-09-23T08:37:41.981Z,14.20
2017-09-23T08:40:11.235Z,14.10
2017-09-23T08:42:39.541Z,14.00
2017-09-23T08:45:07.713Z,14.10
2017-09-23T08:47:35.820Z,14.10
2017-09-23T08:50:03.929Z,14.10
2017-09-23T08:52:33.111Z,14.10
2017-09-23T08:55:02.232Z,14.10
2017-09-23T08:57:30.345Z,14.20
2017-09-23T08:59:59.359Z,14.10
2017-09-23T09:02:27.497Z,14.10
2017-09-23T09:04:55.615Z,14.10
2017-09-23T09:07:23.752Z,14.10
2017-09-23T09:09:52.643Z,14.10
2017-09-23T09:12:21.515Z,14.10
2017-09-23T09:14:49.704Z,14.10
2017-09-23T09:17:18.616Z,14.10
2017-09-23T09:19:46.714Z,14.20
2017-09-23T09:22:14.835Z,14.20
2017-09-23T09:24:43.701Z,14.20
2017-09-23T09:27:11.809Z,14.30
2017-09-23T09:29:41.045Z,14.30
2017-09-23T09:32:09.160Z,14.30
2017-09-23T09:34:37.248Z,14.30
2017-09-23T09:37:05.347Z,14.40
2017-09-23T09:39:33.460Z,14.40
2017-09-23T09:42:01.552Z,14.40
2017-09-23T09:44:30.872Z,14.40
2017-09-23T09:46:59.844Z,14.40
2017-09-23T09:49:27.948Z,14.40
2017-09-23T09:51:56.808Z,14.50
2017-09-23T09:54:25.993Z,14.40
2017-09-23T09:56:54.213Z,14.50
2017-09-23T09:59:22.388Z,14.50
2017-09-23T10:01:50.514Z,14.50
2017-09-23T10:04:18.612Z,14.60
2017-09-23T10:06:46.747Z,14.70
2017-09-23T10:09:14.844Z,14.70
2017-09-23T10:11:42.989Z,14.60
2017-09-23T10:14:11.088Z,14.60
2017-09-23T10:16:39.184Z,14.70
2017-09-23T10:19:07.303Z,14.70
2017-09-23T10:21:35.448Z,14.70
2017-09-23T10:24:03.593Z,14.70
2017-09-23T10:26:32.500Z,14.70
2017-09-23T10:29:00.669Z,14.70
2017-09-23T10:31:29.762Z,14.70
2017-09-23T10:33:59.572Z,14.70
2017-09-23T10:36:27.773Z,14.80
2017-09-23T10:38:55.935Z,14.80
2017-09-23T10:41:24.942Z,14.80
2017-09-23T10:43:53.095Z,14.80
2017-09-23T10:46:21.173Z,14.80
2017-09-23T10:48:49.349Z,14.80
2017-09-23T10:51:17.466Z,14.80
2017-09-23T10:53:47.308Z,14.80
2017-09-23T10:56:16.371Z,14.80
2017-09-23T10:58:44.533Z,14.80
2017-09-23T11:01:12.667Z,14.90
2017-09-23T11:03:40.820Z,14.90
2017-09-23T11:06:09.103Z,14.90
2017-09-23T11:08:38.919Z,15.00
2017-09-23T11:11:07.087Z,15.00
2017-09-23T11:13:35.231Z,15.00
2017-09-23T11:16:03.397Z,15.10
2017-09-23T11:18:31.505Z,15.20
2017-09-23T11:20:59.672Z,15.30
2017-09-23T11:23:27.785Z,15.40
2017-09-23T11:25:55.875Z,15.50
2017-09-23T11:28:24.003Z,15.50
2017-09-23T11:30:52.087Z,15.50
2017-09-23T11:33:20.196Z,15.50
2017-09-23T11:35:48.302Z,15.50
2017-09-23T11:38:16.386Z,15.50
2017-09-23T11:40:44.496Z,15.60
2017-09-23T11:43:12.588Z,15.60
2017-09-23T11:45:40.695Z,15.60
2017-09-23T11:48:08.831Z,15.60
2017-09-23T11:50:36.964Z,15.60
2017-09-23T11:53:05.850Z,15.60
2017-09-23T11:55:33.970Z,15.70
2017-09-23T11:58:02.156Z,15.70
2017-09-23T12:00:30.533Z,15.70
2017-09-23T12:02:58.621Z,15.80
2017-09-23T12:05:26.744Z,15.90
2017-09-23T12:07:54.928Z,16.00
2017-09-23T12:10:23.051Z,16.10
2017-09-23T12:12:51.155Z,16.30
2017-09-23T12:15:20.059Z,16.20
2017-09-23T12:17:49.194Z,16.20
2017-09-23T12:20:17.319Z,16.30
2017-09-23T12:22:45.427Z,16.40
2017-09-23T12:25:13.531Z,16.50
2017-09-23T12:27:41.650Z,16.40
2017-09-23T12:30:09.749Z,16.60
2017-09-23T12:32:37.967Z,17.40
2017-09-23T12:35:06.089Z,18.10
2017-09-23T12:37:34.228Z,18.20
2017-09-23T12:40:03.137Z,17.80
2017-09-23T12:42:31.231Z,18.00
2017-09-23T12:44:59.384Z,17.60
2017-09-23T12:47:27.534Z,17.60
2017-09-23T12:49:56.410Z,17.40
2017-09-23T12:52:25.297Z,17.30
2017-09-23T12:54:53.730Z,17.30
2017-09-23T12:57:21.877Z,17.10
2017-09-23T12:59:49.975Z,16.90
2017-09-23T13:02:18.097Z,16.70
2017-09-23T13:04:46.212Z,16.60
2017-09-23T13:07:14.495Z,16.60
2017-09-23T13:09:42.618Z,16.70
2017-09-23T13:12:10.710Z,16.70
2017-09-23T13:14:39.587Z,16.80
2017-09-23T13:17:07.692Z,16.90
2017-09-23T13:19:35.792Z,16.80
2017-09-23T13:22:03.913Z,16.80
2017-09-23T13:24:32.776Z,16.80
2017-09-23T13:27:00.892Z,16.80
2017-09-23T13:29:29.783Z,16.80
2017-09-23T13:31:57.906Z,16.80
2017-09-23T13:34:26.016Z,16.80
2017-09-23T13:36:54.113Z,16.80
2017-09-23T13:39:22.256Z,16.70
2017-09-23T13:41:51.161Z,16.60
2017-09-23T13:44:19.273Z,16.60
2017-09-23T13:46:47.398Z,16.60
2017-09-23T13:49:16.321Z,16.60
2017-09-23T13:51:44.745Z,16.80
2017-09-23T13:54:12.852Z,16.70
2017-09-23T13:56:41.202Z,16.70
2017-09-23T13:59:09.316Z,16.60
2017-09-23T14:01:38.435Z,16.60
2017-09-23T14:04:06.534Z,16.60
2017-09-23T14:06:34.648Z,16.60
2017-09-23T14:09:02.902Z,16.60
2017-09-23T14:11:31.051Z,16.60
2017-09-23T14:13:59.746Z,16.60
2017-09-23T14:16:27.856Z,16.50
2017-09-23T14:18:55.954Z,16.50
2017-09-23T14:21:24.038Z,16.50
2017-09-23T14:23:53.467Z,16.40
2017-09-23T14:26:22.052Z,16.40
2017-09-23T14:28:50.257Z,16.40
2017-09-23T14:31:18.363Z,16.50
2017-09-23T14:33:46.474Z,16.40
2017-09-23T14:36:14.580Z,16.40
2017-09-23T14:38:42.700Z,16.40
2017-09-23T14:41:10.983Z,16.30
2017-09-23T14:43:39.083Z,16.30
2017-09-23T14:46:07.187Z,16.30
2017-09-23T14:48:35.310Z,16.30
2017-09-23T14:51:03.390Z,16.30
2017-09-23T14:53:31.484Z,16.30
2017-09-23T14:56:00.363Z,16.30
2017-09-23T14:58:29.232Z,16.30
2017-09-23T15:00:57.368Z,16.30
2017-09-23T15:03:25.479Z,16.40
2017-09-23T15:05:53.573Z,16.40
2017-09-23T15:08:21.682Z,16.50
2017-09-23T15:10:50.867Z,16.50
2017-09-23T15:13:18.987Z,16.60
2017-09-23T15:15:47.078Z,16.60
2017-09-23T15:18:15.197Z,16.50
2017-09-23T15:20:43.322Z,16.50
2017-09-23T15:23:11.442Z,16.50
2017-09-23T15:25:40.668Z,16.40
2017-09-23T15:28:08.765Z,16.50
2017-09-23T15:30:36.860Z,16.60
2017-09-23T15:33:04.981Z,16.70
2017-09-23T15:35:33.059Z,16.70
2017-09-23T15:38:01.190Z,16.70
2017-09-23T15:40:30.375Z,16.70
2017-09-23T15:42:59.280Z,16.60
2017-09-23T15:45:28.533Z,16.50
2017-09-23T15:47:56.940Z,16.50
2017-09-23T15:50:25.835Z,16.50
2017-09-23T15:52:54.755Z,16.50
2017-09-23T15:55:22.877Z,16.50
2017-09-23T15:57:51.740Z,16.60
2017-09-23T16:00:20.656Z,16.60
2017-09-23T16:02:48.782Z,16.50
2017-09-23T16:05:16.928Z,16.40
2017-09-23T16:07:45.034Z,16.40
2017-09-23T16:10:13.131Z,16.30
2017-09-23T16:12:41.274Z,16.30
2017-09-23T16:15:09.376Z,16.30
2017-09-23T16:17:37.483Z,16.30
2017-09-23T16:20:06.392Z,16.40
2017-09-23T16:22:35.269Z,16.30
2017-09-23T16:25:04.325Z,16.30
2017-09-23T16:27:32.412Z,16.20
2017-09-23T16:30:00.528Z,16.20
2017-09-23T16:32:28.631Z,16.10
2017-09-23T16:34:56.739Z,16.10
2017-09-23T16:37:24.936Z,16.10
2017-09-23T16:39:53.825Z,16.00
2017-09-23T16:42:21.919Z,16.00
2017-09-23T16:44:50.038Z,16.00
2017-09-23T16:47:18.151Z,15.90
2017-09-23T16:49:46.885Z,15.90
2017-09-23T16:52:15.011Z,15.80
2017-09-23T16:54:43.140Z,15.80
2017-09-23T16:57:11.246Z,15.70
2017-09-23T16:59:40.106Z,15.70
2017-09-23T17:02:08.717Z,15.70
2017-09-23T17:04:36.815Z,15.70
2017-09-23T17:07:04.960Z,15.60
2017-09-23T17:09:33.058Z,15.50
2017-09-23T17:12:01.154Z,15.50
2017-09-23T17:14:29.291Z,15.50
2017-09-23T17:16:58.176Z,15.40
2017-09-23T17:19:26.347Z,15.40
2017-09-23T17:21:55.219Z,15.30
2017-09-23T17:24:23.434Z,15.30
2017-09-23T17:26:51.627Z,15.30
2017-09-23T17:29:19.779Z,15.30
2017-09-23T17:31:47.926Z,15.20
2017-09-23T17:34:16.051Z,15.20
2017-09-23T17:36:44.172Z,15.20
2017-09-23T17:39:12.255Z,15.20
2017-09-23T17:41:40.390Z,15.10
2017-09-23T17:44:09.495Z,15.10
2017-09-23T17:46:37.639Z,15.00
2017-09-23T17:49:05.731Z,15.00
2017-09-23T17:51:33.841Z,15.00
2017-09-23T17:54:01.968Z,14.90
2017-09-23T17:56:30.077Z,15.00
2017-09-23T17:58:58.264Z,15.00
2017-09-23T18:01:26.335Z,14.80
2017-09-23T18:03:55.337Z,14.70
2017-09-23T18:06:23.435Z,14.80
2017-09-23T18:08:51.568Z,14.70
2017-09-23T18:11:21.435Z,14.60
2017-09-23T18:13:50.739Z,14.60
2017-09-23T18:16:18.858Z,14.50
2017-09-23T18:18:49.354Z,14.50
2017-09-23T18:21:17.481Z,14.50
2017-09-23T18:23:45.668Z,14.60
2017-09-23T18:26:13.807Z,14.50
2017-09-23T18:28:42.891Z,14.50
2017-09-23T18:31:12.173Z,14.50
2017-09-23T18:33:41.226Z,14.50
2017-09-23T18:36:09.515Z,14.50
2017-09-23T18:38:37.635Z,14.50
2017-09-23T18:41:06.752Z,14.40
2017-09-23T18:43:36.812Z,14.30
2017-09-23T18:46:05.088Z,14.30
2017-09-23T18:48:37.750Z,14.30
2017-09-23T18:51:05.939Z,14.30
2017-09-23T18:53:34.196Z,14.20
2017-09-23T18:56:03.407Z,14.20
2017-09-23T18:58:31.695Z,14.00
2017-09-23T19:00:59.794Z,14.00
2017-09-23T19:03:28.021Z,14.00
2017-09-23T19:05:59.375Z,14.00
2017-09-23T19:08:27.492Z,13.90
2017-09-23T19:10:55.655Z,13.90
2017-09-23T19:13:24.782Z,13.80
2017-09-23T19:15:53.713Z,13.70
2017-09-23T19:18:21.810Z,13.60
2017-09-23T19:20:49.942Z,13.60
2017-09-23T19:23:19.670Z,13.60
2017-09-23T19:25:48.167Z,13.50
2017-09-23T19:28:16.317Z,13.40
2017-09-23T19:30:44.460Z,13.40
2017-09-23T19:33:12.669Z,13.30
2017-09-23T19:35:40.929Z,13.20
2017-09-23T19:38:09.158Z,13.10
2017-09-23T19:40:37.414Z,13.00
2017-09-23T19:43:07.000Z,13.00
2017-09-23T19:45:35.573Z,12.90
2017-09-23T19:48:04.011Z,12.80
2017-09-23T19:50:32.742Z,12.80
2017-09-23T19:53:00.843Z,12.80
2017-09-23T19:55:28.977Z,12.90
2017-09-23T19:57:57.091Z,12.80
2017-09-23T20:00:25.333Z,12.80
2017-09-23T20:02:53.518Z,12.80
2017-09-23T20:05:21.622Z,12.80
2017-09-23T20:07:49.893Z,12.80
2017-09-23T20:10:18.145Z,12.80
2017-09-23T20:12:46.291Z,12.90
2017-09-23T20:15:16.131Z,12.80
2017-09-23T20:17:44.226Z,12.90
2017-09-23T20:20:12.357Z,12.70
2017-09-23T20:22:40.491Z,12.60
2017-09-23T20:25:08.600Z,12.70
2017-09-23T20:27:36.808Z,12.80
2017-09-23T20:30:07.117Z,12.80
2017-09-23T20:32:35.208Z,12.80
2017-09-23T20:35:03.363Z,12.70
2017-09-23T20:37:31.611Z,12.50
2017-09-23T20:39:59.828Z,12.30
2017-09-23T20:42:27.961Z,12.30
2017-09-23T20:45:01.025Z,12.40
2017-09-23T20:47:29.426Z,12.40
2017-09-23T20:49:58.464Z,12.40
2017-09-23T20:52:26.607Z,12.30
2017-09-23T20:54:56.491Z,12.40
2017-09-23T20:57:24.637Z,12.30
2017-09-23T20:59:52.756Z,12.40
2017-09-23T21:02:21.369Z,12.30
2017-09-23T21:04:49.538Z,12.20
2017-09-23T21:07:17.683Z,12.20
2017-09-23T21:09:45.887Z,12.10
2017-09-23T21:12:14.003Z,12.00
2017-09-23T21:14:42.205Z,12.00
2017-09-23T21:17:11.096Z,12.00
2017-09-23T21:19:40.024Z,12.10
2017-09-23T21:22:08.128Z,12.10
2017-09-23T21:24:36.262Z,12.10
2017-09-23T21:27:04.439Z,12.10
2017-09-23T21:29:41.179Z,11.90
2017-09-23T21:32:09.379Z,11.90
2017-09-23T21:40:41.783Z,11.90
2017-09-23T21:43:38.096Z,11.80
2017-09-23T21:46:07.260Z,11.80
2017-09-23T21:48:35.522Z,11.80
2017-09-23T21:51:03.653Z,11.90
2017-09-23T21:53:32.900Z,11.90
2017-09-23T21:56:01.032Z,11.70
2017-09-23T21:58:30.997Z,11.60
2017-09-23T22:01:01.416Z,11.50
2017-09-23T22:03:33.176Z,11.70
2017-09-23T22:06:02.240Z,11.60
2017-09-23T22:08:30.443Z,11.60
2017-09-23T22:10:58.607Z,11.70
2017-09-23T22:13:28.518Z,11.50
2017-09-23T22:15:58.170Z,11.60
2017-09-23T22:18:26.367Z,11.60
2017-09-23T22:20:55.448Z,11.60
2017-09-23T22:23:23.860Z,11.60
2017-09-23T22:25:51.959Z,11.50
2017-09-23T22:28:20.092Z,11.50
2017-09-23T22:30:48.972Z,11.60
2017-09-23T22:33:17.099Z,11.70
2017-09-23T22:35:45.200Z,11.60
2017-09-23T22:38:13.294Z,11.60
2017-09-23T22:40:41.444Z,11.60
2017-09-23T22:43:09.524Z,11.30
2017-09-23T22:45:37.641Z,11.40
2017-09-23T22:48:06.719Z,11.30
2017-09-23T22:50:35.608Z,11.30
2017-09-23T22:53:04.483Z,11.50
2017-09-23T22:55:32.581Z,11.30
2017-09-23T22:58:00.696Z,11.40
2017-09-23T23:00:28.806Z,11.20
2017-09-23T23:02:57.736Z,11.10
2017-09-23T23:05:25.844Z,11.10
2017-09-23T23:07:53.959Z,11.10
2017-09-23T23:10:22.994Z,11.10
2017-09-23T23:12:51.155Z,11.10
2017-09-23T23:15:19.289Z,11.30
2017-09-23T23:17:48.156Z,11.20
2017-09-23T23:20:16.263Z,11.20
2017-09-23T23:22:44.362Z,11.20
2017-09-23T23:25:12.559Z,11.30
2017-09-23T23:27:40.672Z,11.20
2017-09-23T23:30:08.756Z,11.20
2017-09-23T23:32:36.874Z,11.30
2017-09-23T23:35:05.242Z,11.30
2017-09-23T23:37:33.327Z,11.10
2017-09-23T23:40:01.432Z,11.10
2017-09-23T23:42:29.581Z,10.90
2017-09-23T23:44:57.667Z,10.90
2017-09-23T23:47:25.789Z,10.90
2017-09-23T23:49:53.900Z,10.90
2017-09-23T23:52:21.987Z,10.90
2017-09-23T23:54:50.106Z,10.90
2017-09-23T23:57:18.193Z,11.00
2017-09-23T23:59:46.279Z,10.80
